sensor_id;sensor_type;location;lat;lon;timestamp;P1;durP1;ratioP1;P2;durP2;ratioP2
59167;SDS011;44948;55.046;73.266;2023-03-11T00:02:26;10.55;;;5.30;;
59167;SDS011;44948;55.046;73.266;2023-03-11T00:05:30;10.95;;;4.65;;
59167;SDS011;44948;55.046;73.266;2023-03-11T00:08:38;12.45;;;5.60;;
59167;SDS011;44948;55.046;73.266;2023-03-11T00:11:41;13.93;;;4.95;;
59167;SDS011;44948;55.046;73.266;2023-03-11T00:14:50;13.18;;;5.05;;
59167;SDS011;44948;55.046;73.266;2023-03-11T00:17:53;15.57;;;5.38;;
59167;SDS011;44948;55.046;73.266;2023-03-11T00:20:56;9.93;;;4.50;;
59167;SDS011;44948;55.046;73.266;2023-03-11T00:23:59;16.60;;;5.38;;
59167;SDS011;44948;55.046;73.266;2023-03-11T00:27:04;11.07;;;4.85;;
59167;SDS011;44948;55.046;73.266;2023-03-11T00:30:18;13.15;;;4.82;;
59167;SDS011;44948;55.046;73.266;2023-03-11T00:33:31;12.65;;;4.68;;
59167;SDS011;44948;55.046;73.266;2023-03-11T00:36:35;12.55;;;5.25;;
59167;SDS011;44948;55.046;73.266;2023-03-11T00:39:40;12.85;;;5.35;;
59167;SDS011;44948;55.046;73.266;2023-03-11T00:42:51;11.93;;;4.78;;
59167;SDS011;44948;55.046;73.266;2023-03-11T00:45:57;14.77;;;5.83;;
59167;SDS011;44948;55.046;73.266;2023-03-11T00:49:06;13.88;;;5.20;;
59167;SDS011;44948;55.046;73.266;2023-03-11T00:52:09;14.35;;;5.45;;
59167;SDS011;44948;55.046;73.266;2023-03-11T00:55:12;15.25;;;4.60;;
59167;SDS011;44948;55.046;73.266;2023-03-11T00:58:19;15.10;;;5.97;;
59167;SDS011;44948;55.046;73.266;2023-03-11T01:01:27;13.90;;;4.93;;
59167;SDS011;44948;55.046;73.266;2023-03-11T01:04:36;11.55;;;4.47;;
59167;SDS011;44948;55.046;73.266;2023-03-11T01:07:44;8.60;;;4.65;;
59167;SDS011;44948;55.046;73.266;2023-03-11T01:10:52;14.30;;;7.18;;
59167;SDS011;44948;55.046;73.266;2023-03-11T01:14:02;12.52;;;4.75;;
59167;SDS011;44948;55.046;73.266;2023-03-11T01:17:04;12.63;;;4.68;;
59167;SDS011;44948;55.046;73.266;2023-03-11T01:20:11;13.18;;;4.63;;
59167;SDS011;44948;55.046;73.266;2023-03-11T01:23:16;11.80;;;5.15;;
59167;SDS011;44948;55.046;73.266;2023-03-11T01:26:25;11.85;;;4.78;;
59167;SDS011;44948;55.046;73.266;2023-03-11T01:29:30;14.55;;;5.25;;
59167;SDS011;44948;55.046;73.266;2023-03-11T01:32:33;8.80;;;4.07;;
59167;SDS011;44948;55.046;73.266;2023-03-11T01:35:44;14.70;;;5.37;;
59167;SDS011;44948;55.046;73.266;2023-03-11T01:38:51;9.95;;;4.80;;
59167;SDS011;44948;55.046;73.266;2023-03-11T01:42:06;9.82;;;4.30;;
59167;SDS011;44948;55.046;73.266;2023-03-11T01:48:29;11.18;;;4.95;;
59167;SDS011;44948;55.046;73.266;2023-03-11T01:51:33;9.85;;;4.13;;
59167;SDS011;44948;55.046;73.266;2023-03-11T01:54:49;8.63;;;3.92;;
59167;SDS011;44948;55.046;73.266;2023-03-11T01:57:57;11.63;;;4.90;;
59167;SDS011;44948;55.046;73.266;2023-03-11T02:01:04;12.80;;;3.88;;
59167;SDS011;44948;55.046;73.266;2023-03-11T02:04:09;10.23;;;4.38;;
59167;SDS011;44948;55.046;73.266;2023-03-11T02:07:22;13.43;;;5.28;;
59167;SDS011;44948;55.046;73.266;2023-03-11T02:10:29;18.98;;;5.30;;
59167;SDS011;44948;55.046;73.266;2023-03-11T02:13:32;14.02;;;5.70;;
59167;SDS011;44948;55.046;73.266;2023-03-11T02:16:36;16.80;;;5.63;;
59167;SDS011;44948;55.046;73.266;2023-03-11T02:22:46;9.88;;;4.28;;
59167;SDS011;44948;55.046;73.266;2023-03-11T02:29:56;9.88;;;4.15;;
59167;SDS011;44948;55.046;73.266;2023-03-11T02:33:06;12.90;;;4.10;;
59167;SDS011;44948;55.046;73.266;2023-03-11T02:39:39;10.18;;;4.50;;
59167;SDS011;44948;55.046;73.266;2023-03-11T02:42:47;10.07;;;4.13;;
59167;SDS011;44948;55.046;73.266;2023-03-11T02:45:52;11.32;;;3.63;;
59167;SDS011;44948;55.046;73.266;2023-03-11T02:48:56;8.63;;;3.42;;
59167;SDS011;44948;55.046;73.266;2023-03-11T02:52:04;10.88;;;3.47;;
59167;SDS011;44948;55.046;73.266;2023-03-11T02:55:07;7.20;;;3.13;;
59167;SDS011;44948;55.046;73.266;2023-03-11T03:01:16;8.68;;;3.60;;
59167;SDS011;44948;55.046;73.266;2023-03-11T03:04:27;15.35;;;6.85;;
59167;SDS011;44948;55.046;73.266;2023-03-11T03:07:41;13.38;;;5.90;;
59167;SDS011;44948;55.046;73.266;2023-03-11T03:10:43;10.75;;;5.07;;
59167;SDS011;44948;55.046;73.266;2023-03-11T03:13:51;11.00;;;3.35;;
59167;SDS011;44948;55.046;73.266;2023-03-11T03:16:54;10.30;;;4.03;;
59167;SDS011;44948;55.046;73.266;2023-03-11T03:19:57;7.95;;;3.63;;
59167;SDS011;44948;55.046;73.266;2023-03-11T03:23:05;7.45;;;3.33;;
59167;SDS011;44948;55.046;73.266;2023-03-11T03:26:11;10.18;;;4.07;;
59167;SDS011;44948;55.046;73.266;2023-03-11T03:29:16;9.55;;;3.90;;
59167;SDS011;44948;55.046;73.266;2023-03-11T03:32:19;10.18;;;4.03;;
59167;SDS011;44948;55.046;73.266;2023-03-11T03:35:25;12.23;;;4.82;;
59167;SDS011;44948;55.046;73.266;2023-03-11T03:38:57;9.82;;;4.50;;
59167;SDS011;44948;55.046;73.266;2023-03-11T03:42:05;8.80;;;3.88;;
59167;SDS011;44948;55.046;73.266;2023-03-11T03:45:11;12.45;;;4.50;;
59167;SDS011;44948;55.046;73.266;2023-03-11T03:48:27;11.82;;;4.72;;
59167;SDS011;44948;55.046;73.266;2023-03-11T03:51:30;11.07;;;4.40;;
59167;SDS011;44948;55.046;73.266;2023-03-11T03:54:44;10.23;;;4.57;;
59167;SDS011;44948;55.046;73.266;2023-03-11T03:57:47;8.75;;;3.88;;
59167;SDS011;44948;55.046;73.266;2023-03-11T04:00:53;15.07;;;6.97;;
59167;SDS011;44948;55.046;73.266;2023-03-11T04:03:58;14.23;;;4.70;;
59167;SDS011;44948;55.046;73.266;2023-03-11T04:07:11;8.68;;;3.60;;
59167;SDS011;44948;55.046;73.266;2023-03-11T04:10:23;9.70;;;5.00;;
59167;SDS011;44948;55.046;73.266;2023-03-11T04:13:31;8.55;;;3.55;;
59167;SDS011;44948;55.046;73.266;2023-03-11T04:16:34;10.75;;;4.10;;
59167;SDS011;44948;55.046;73.266;2023-03-11T04:19:52;9.70;;;4.75;;
59167;SDS011;44948;55.046;73.266;2023-03-11T04:22:54;15.60;;;6.93;;
59167;SDS011;44948;55.046;73.266;2023-03-11T04:26:00;10.48;;;3.90;;
59167;SDS011;44948;55.046;73.266;2023-03-11T04:29:02;14.98;;;5.13;;
59167;SDS011;44948;55.046;73.266;2023-03-11T04:32:10;12.27;;;4.60;;
59167;SDS011;44948;55.046;73.266;2023-03-11T04:35:14;10.18;;;4.38;;
59167;SDS011;44948;55.046;73.266;2023-03-11T04:38:21;11.35;;;4.47;;
59167;SDS011;44948;55.046;73.266;2023-03-11T04:41:29;18.45;;;6.90;;
59167;SDS011;44948;55.046;73.266;2023-03-11T04:44:35;9.32;;;4.07;;
59167;SDS011;44948;55.046;73.266;2023-03-11T04:47:40;15.23;;;4.40;;
59167;SDS011;44948;55.046;73.266;2023-03-11T04:50:54;8.38;;;4.00;;
59167;SDS011;44948;55.046;73.266;2023-03-11T04:54:07;10.25;;;3.75;;
59167;SDS011;44948;55.046;73.266;2023-03-11T04:57:20;8.34;;;4.20;;
59167;SDS011;44948;55.046;73.266;2023-03-11T05:00:28;10.60;;;5.03;;
59167;SDS011;44948;55.046;73.266;2023-03-11T05:03:38;13.13;;;5.22;;
59167;SDS011;44948;55.046;73.266;2023-03-11T05:06:43;12.27;;;4.63;;
59167;SDS011;44948;55.046;73.266;2023-03-11T05:09:47;7.32;;;3.97;;
59167;SDS011;44948;55.046;73.266;2023-03-11T05:12:50;8.27;;;4.32;;
59167;SDS011;44948;55.046;73.266;2023-03-11T05:15:58;8.80;;;4.50;;
59167;SDS011;44948;55.046;73.266;2023-03-11T05:19:03;10.75;;;4.95;;
59167;SDS011;44948;55.046;73.266;2023-03-11T05:22:25;13.27;;;4.38;;
59167;SDS011;44948;55.046;73.266;2023-03-11T05:25:28;15.00;;;4.95;;
59167;SDS011;44948;55.046;73.266;2023-03-11T05:28:31;15.15;;;6.45;;
59167;SDS011;44948;55.046;73.266;2023-03-11T05:31:38;24.35;;;10.00;;
59167;SDS011;44948;55.046;73.266;2023-03-11T05:34:41;14.40;;;6.55;;
59167;SDS011;44948;55.046;73.266;2023-03-11T05:37:44;55.06;;;22.32;;
59167;SDS011;44948;55.046;73.266;2023-03-11T05:40:51;13.60;;;6.10;;
59167;SDS011;44948;55.046;73.266;2023-03-11T05:43:56;15.88;;;7.75;;
59167;SDS011;44948;55.046;73.266;2023-03-11T05:47:09;10.65;;;4.72;;
59167;SDS011;44948;55.046;73.266;2023-03-11T05:50:17;20.70;;;10.43;;
59167;SDS011;44948;55.046;73.266;2023-03-11T05:53:21;14.40;;;7.60;;
59167;SDS011;44948;55.046;73.266;2023-03-11T05:56:29;29.25;;;13.02;;
59167;SDS011;44948;55.046;73.266;2023-03-11T05:59:42;30.40;;;11.18;;
59167;SDS011;44948;55.046;73.266;2023-03-11T06:02:45;106.70;;;34.10;;
59167;SDS011;44948;55.046;73.266;2023-03-11T06:06:03;81.57;;;26.70;;
59167;SDS011;44948;55.046;73.266;2023-03-11T06:09:10;84.15;;;29.38;;
59167;SDS011;44948;55.046;73.266;2023-03-11T06:12:14;82.47;;;27.90;;
59167;SDS011;44948;55.046;73.266;2023-03-11T06:15:35;33.83;;;13.80;;
59167;SDS011;44948;55.046;73.266;2023-03-11T06:18:39;52.15;;;19.67;;
59167;SDS011;44948;55.046;73.266;2023-03-11T06:21:41;37.25;;;15.00;;
59167;SDS011;44948;55.046;73.266;2023-03-11T06:24:49;27.98;;;11.15;;
59167;SDS011;44948;55.046;73.266;2023-03-11T06:27:52;19.80;;;8.93;;
59167;SDS011;44948;55.046;73.266;2023-03-11T06:31:05;25.98;;;9.60;;
59167;SDS011;44948;55.046;73.266;2023-03-11T06:34:13;28.92;;;12.73;;
59167;SDS011;44948;55.046;73.266;2023-03-11T06:37:15;12.57;;;5.75;;
59167;SDS011;44948;55.046;73.266;2023-03-11T06:43:26;18.73;;;7.03;;
59167;SDS011;44948;55.046;73.266;2023-03-11T06:46:29;13.15;;;5.82;;
59167;SDS011;44948;55.046;73.266;2023-03-11T06:49:31;16.42;;;5.82;;
59167;SDS011;44948;55.046;73.266;2023-03-11T06:52:45;10.75;;;5.75;;
59167;SDS011;44948;55.046;73.266;2023-03-11T06:56:00;15.88;;;8.23;;
59167;SDS011;44948;55.046;73.266;2023-03-11T06:59:14;16.52;;;7.50;;
59167;SDS011;44948;55.046;73.266;2023-03-11T07:02:16;15.90;;;8.18;;
59167;SDS011;44948;55.046;73.266;2023-03-11T07:05:19;20.25;;;11.70;;
59167;SDS011;44948;55.046;73.266;2023-03-11T07:08:32;15.60;;;7.50;;
59167;SDS011;44948;55.046;73.266;2023-03-11T07:11:35;12.63;;;6.10;;
59167;SDS011;44948;55.046;73.266;2023-03-11T07:14:47;15.23;;;7.72;;
59167;SDS011;44948;55.046;73.266;2023-03-11T07:18:00;17.60;;;7.65;;
59167;SDS011;44948;55.046;73.266;2023-03-11T07:21:16;13.95;;;7.35;;
59167;SDS011;44948;55.046;73.266;2023-03-11T07:24:24;20.10;;;9.40;;
59167;SDS011;44948;55.046;73.266;2023-03-11T07:27:27;31.05;;;13.38;;
59167;SDS011;44948;55.046;73.266;2023-03-11T07:30:29;30.77;;;12.80;;
59167;SDS011;44948;55.046;73.266;2023-03-11T07:33:32;16.52;;;7.50;;
59167;SDS011;44948;55.046;73.266;2023-03-11T07:36:39;29.17;;;13.25;;
59167;SDS011;44948;55.046;73.266;2023-03-11T07:39:43;24.60;;;9.75;;
59167;SDS011;44948;55.046;73.266;2023-03-11T07:42:45;14.15;;;5.82;;
59167;SDS011;44948;55.046;73.266;2023-03-11T07:45:47;21.02;;;8.98;;
59167;SDS011;44948;55.046;73.266;2023-03-11T07:48:54;11.06;;;5.14;;
59167;SDS011;44948;55.046;73.266;2023-03-11T07:51:56;12.70;;;5.38;;
59167;SDS011;44948;55.046;73.266;2023-03-11T07:54:59;13.35;;;5.07;;
59167;SDS011;44948;55.046;73.266;2023-03-11T07:58:07;10.48;;;4.90;;
59167;SDS011;44948;55.046;73.266;2023-03-11T08:01:14;9.93;;;5.50;;
59167;SDS011;44948;55.046;73.266;2023-03-11T08:04:18;12.63;;;5.28;;
59167;SDS011;44948;55.046;73.266;2023-03-11T08:07:31;15.10;;;7.20;;
59167;SDS011;44948;55.046;73.266;2023-03-11T08:10:37;14.70;;;5.90;;
59167;SDS011;44948;55.046;73.266;2023-03-11T08:13:41;12.10;;;5.82;;
59167;SDS011;44948;55.046;73.266;2023-03-11T08:16:45;73.13;;;31.00;;
59167;SDS011;44948;55.046;73.266;2023-03-11T08:19:50;12.87;;;7.10;;
59167;SDS011;44948;55.046;73.266;2023-03-11T08:22:52;23.58;;;10.50;;
59167;SDS011;44948;55.046;73.266;2023-03-11T08:25:55;26.02;;;11.10;;
59167;SDS011;44948;55.046;73.266;2023-03-11T08:29:03;23.30;;;9.77;;
59167;SDS011;44948;55.046;73.266;2023-03-11T08:32:05;21.48;;;9.55;;
59167;SDS011;44948;55.046;73.266;2023-03-11T08:35:08;23.25;;;9.82;;
59167;SDS011;44948;55.046;73.266;2023-03-11T08:38:17;12.27;;;5.15;;
59167;SDS011;44948;55.046;73.266;2023-03-11T08:41:21;12.88;;;5.47;;
59167;SDS011;44948;55.046;73.266;2023-03-11T08:44:25;12.02;;;5.65;;
59167;SDS011;44948;55.046;73.266;2023-03-11T08:47:27;25.52;;;11.10;;
59167;SDS011;44948;55.046;73.266;2023-03-11T08:53:41;18.08;;;7.35;;
59167;SDS011;44948;55.046;73.266;2023-03-11T08:56:46;11.70;;;5.97;;
59167;SDS011;44948;55.046;73.266;2023-03-11T08:59:48;5.60;;;3.50;;
59167;SDS011;44948;55.046;73.266;2023-03-11T09:02:50;14.95;;;7.10;;
59167;SDS011;44948;55.046;73.266;2023-03-11T09:05:59;43.60;;;16.48;;
59167;SDS011;44948;55.046;73.266;2023-03-11T09:09:02;27.95;;;11.90;;
59167;SDS011;44948;55.046;73.266;2023-03-11T09:12:04;24.60;;;10.13;;
59167;SDS011;44948;55.046;73.266;2023-03-11T09:15:08;19.40;;;8.00;;
59167;SDS011;44948;55.046;73.266;2023-03-11T09:18:12;13.98;;;7.22;;
59167;SDS011;44948;55.046;73.266;2023-03-11T09:21:21;20.07;;;8.20;;
59167;SDS011;44948;55.046;73.266;2023-03-11T09:24:23;19.35;;;8.43;;
59167;SDS011;44948;55.046;73.266;2023-03-11T09:27:25;20.00;;;9.68;;
59167;SDS011;44948;55.046;73.266;2023-03-11T09:30:35;13.00;;;6.00;;
59167;SDS011;44948;55.046;73.266;2023-03-11T09:33:43;9.25;;;5.50;;
59167;SDS011;44948;55.046;73.266;2023-03-11T09:36:47;16.85;;;9.00;;
59167;SDS011;44948;55.046;73.266;2023-03-11T09:39:54;15.01;;;6.97;;
59167;SDS011;44948;55.046;73.266;2023-03-11T09:43:15;16.70;;;7.10;;
59167;SDS011;44948;55.046;73.266;2023-03-11T09:53:49;15.55;;;7.00;;
59167;SDS011;44948;55.046;73.266;2023-03-11T09:57:00;15.82;;;7.40;;
59167;SDS011;44948;55.046;73.266;2023-03-11T10:00:10;17.20;;;8.13;;
59167;SDS011;44948;55.046;73.266;2023-03-11T10:03:23;15.00;;;7.88;;
59167;SDS011;44948;55.046;73.266;2023-03-11T10:06:29;16.50;;;6.50;;
59167;SDS011;44948;55.046;73.266;2023-03-11T10:16:33;12.57;;;5.25;;
59167;SDS011;44948;55.046;73.266;2023-03-11T10:19:48;11.70;;;4.65;;
59167;SDS011;44948;55.046;73.266;2023-03-11T10:23:04;16.80;;;7.18;;
59167;SDS011;44948;55.046;73.266;2023-03-11T10:26:44;14.45;;;5.22;;
59167;SDS011;44948;55.046;73.266;2023-03-11T10:29:59;18.02;;;7.30;;
59167;SDS011;44948;55.046;73.266;2023-03-11T10:33:13;17.63;;;6.90;;
59167;SDS011;44948;55.046;73.266;2023-03-11T10:36:25;22.15;;;8.65;;
59167;SDS011;44948;55.046;73.266;2023-03-11T10:39:41;46.05;;;18.85;;
59167;SDS011;44948;55.046;73.266;2023-03-11T10:42:44;40.78;;;14.63;;
59167;SDS011;44948;55.046;73.266;2023-03-11T10:45:47;53.05;;;19.67;;
59167;SDS011;44948;55.046;73.266;2023-03-11T10:48:51;37.08;;;16.52;;
59167;SDS011;44948;55.046;73.266;2023-03-11T10:51:56;41.33;;;15.83;;
59167;SDS011;44948;55.046;73.266;2023-03-11T10:55:03;26.75;;;10.85;;
59167;SDS011;44948;55.046;73.266;2023-03-11T10:58:09;20.98;;;9.85;;
59167;SDS011;44948;55.046;73.266;2023-03-11T11:01:15;27.65;;;12.55;;
59167;SDS011;44948;55.046;73.266;2023-03-11T11:04:28;48.88;;;24.35;;
59167;SDS011;44948;55.046;73.266;2023-03-11T11:07:41;32.60;;;14.90;;
59167;SDS011;44948;55.046;73.266;2023-03-11T11:10:52;43.52;;;17.40;;
59167;SDS011;44948;55.046;73.266;2023-03-11T11:14:05;44.00;;;18.13;;
59167;SDS011;44948;55.046;73.266;2023-03-11T11:17:23;47.85;;;16.17;;
59167;SDS011;44948;55.046;73.266;2023-03-11T11:20:32;25.50;;;12.82;;
59167;SDS011;44948;55.046;73.266;2023-03-11T11:23:47;57.72;;;22.02;;
59167;SDS011;44948;55.046;73.266;2023-03-11T11:27:02;26.63;;;11.00;;
59167;SDS011;44948;55.046;73.266;2023-03-11T11:33:20;42.90;;;17.52;;
59167;SDS011;44948;55.046;73.266;2023-03-11T11:36:34;45.63;;;18.10;;
59167;SDS011;44948;55.046;73.266;2023-03-11T11:39:52;31.02;;;13.30;;
59167;SDS011;44948;55.046;73.266;2023-03-11T11:43:13;73.33;;;25.30;;
59167;SDS011;44948;55.046;73.266;2023-03-11T11:49:55;31.45;;;13.52;;
59167;SDS011;44948;55.046;73.266;2023-03-11T11:53:18;20.98;;;8.98;;
59167;SDS011;44948;55.046;73.266;2023-03-11T11:56:29;26.00;;;10.48;;
59167;SDS011;44948;55.046;73.266;2023-03-11T11:59:42;45.85;;;16.10;;
59167;SDS011;44948;55.046;73.266;2023-03-11T12:03:02;19.80;;;9.77;;
59167;SDS011;44948;55.046;73.266;2023-03-11T12:06:34;29.92;;;12.07;;
59167;SDS011;44948;55.046;73.266;2023-03-11T12:10:50;43.63;;;16.98;;
59167;SDS011;44948;55.046;73.266;2023-03-11T12:13:49;36.75;;;14.82;;
59167;SDS011;44948;55.046;73.266;2023-03-11T12:17:22;48.00;;;19.83;;
59167;SDS011;44948;55.046;73.266;2023-03-11T12:20:38;53.05;;;20.25;;
59167;SDS011;44948;55.046;73.266;2023-03-11T12:23:55;22.73;;;9.25;;
59167;SDS011;44948;55.046;73.266;2023-03-11T12:27:33;19.08;;;7.57;;
59167;SDS011;44948;55.046;73.266;2023-03-11T12:30:40;13.82;;;6.85;;
59167;SDS011;44948;55.046;73.266;2023-03-11T12:34:05;15.52;;;6.10;;
59167;SDS011;44948;55.046;73.266;2023-03-11T12:37:12;13.63;;;6.30;;
59167;SDS011;44948;55.046;73.266;2023-03-11T12:43:58;12.00;;;6.05;;
59167;SDS011;44948;55.046;73.266;2023-03-11T12:53:50;59.80;;;23.33;;
59167;SDS011;44948;55.046;73.266;2023-03-11T12:56:54;27.73;;;11.23;;
59167;SDS011;44948;55.046;73.266;2023-03-11T13:03:26;13.93;;;7.47;;
59167;SDS011;44948;55.046;73.266;2023-03-11T13:13:39;18.70;;;7.65;;
59167;SDS011;44948;55.046;73.266;2023-03-11T13:16:42;26.05;;;9.27;;
59167;SDS011;44948;55.046;73.266;2023-03-11T13:19:52;19.70;;;8.18;;
59167;SDS011;44948;55.046;73.266;2023-03-11T13:26:11;19.83;;;8.63;;
59167;SDS011;44948;55.046;73.266;2023-03-11T13:29:57;17.80;;;6.90;;
59167;SDS011;44948;55.046;73.266;2023-03-11T13:33:30;25.67;;;8.68;;
59167;SDS011;44948;55.046;73.266;2023-03-11T13:43:19;32.78;;;15.35;;
59167;SDS011;44948;55.046;73.266;2023-03-11T13:49:33;29.50;;;11.88;;
59167;SDS011;44948;55.046;73.266;2023-03-11T13:52:45;26.30;;;10.98;;
59167;SDS011;44948;55.046;73.266;2023-03-11T13:56:00;26.40;;;11.38;;
59167;SDS011;44948;55.046;73.266;2023-03-11T14:02:35;26.83;;;10.38;;
59167;SDS011;44948;55.046;73.266;2023-03-11T14:05:39;23.38;;;9.77;;
59167;SDS011;44948;55.046;73.266;2023-03-11T14:08:55;29.45;;;12.43;;
59167;SDS011;44948;55.046;73.266;2023-03-11T14:15:20;26.60;;;12.77;;
59167;SDS011;44948;55.046;73.266;2023-03-11T14:18:46;43.70;;;16.60;;
59167;SDS011;44948;55.046;73.266;2023-03-11T14:22:05;44.33;;;14.77;;
59167;SDS011;44948;55.046;73.266;2023-03-11T14:28:17;44.05;;;16.52;;
59167;SDS011;44948;55.046;73.266;2023-03-11T14:31:24;40.40;;;17.42;;
59167;SDS011;44948;55.046;73.266;2023-03-11T14:34:38;44.97;;;15.90;;
59167;SDS011;44948;55.046;73.266;2023-03-11T14:37:41;25.73;;;11.50;;
59167;SDS011;44948;55.046;73.266;2023-03-11T14:40:44;64.28;;;31.75;;
59167;SDS011;44948;55.046;73.266;2023-03-11T14:43:55;30.98;;;16.02;;
59167;SDS011;44948;55.046;73.266;2023-03-11T14:47:09;26.70;;;13.00;;
59167;SDS011;44948;55.046;73.266;2023-03-11T14:50:19;20.80;;;11.27;;
59167;SDS011;44948;55.046;73.266;2023-03-11T14:53:25;20.08;;;10.20;;
59167;SDS011;44948;55.046;73.266;2023-03-11T14:56:36;27.48;;;11.98;;
59167;SDS011;44948;55.046;73.266;2023-03-11T14:59:43;52.58;;;16.48;;
59167;SDS011;44948;55.046;73.266;2023-03-11T15:03:07;24.68;;;11.54;;
59167;SDS011;44948;55.046;73.266;2023-03-11T15:06:31;34.30;;;16.13;;
59167;SDS011;44948;55.046;73.266;2023-03-11T15:09:37;40.67;;;14.18;;
59167;SDS011;44948;55.046;73.266;2023-03-11T15:12:41;41.85;;;14.50;;
59167;SDS011;44948;55.046;73.266;2023-03-11T15:15:54;30.38;;;13.25;;
59167;SDS011;44948;55.046;73.266;2023-03-11T15:22:41;27.73;;;12.00;;
59167;SDS011;44948;55.046;73.266;2023-03-11T15:25:47;35.35;;;15.10;;
59167;SDS011;44948;55.046;73.266;2023-03-11T15:29:01;39.10;;;15.57;;
59167;SDS011;44948;55.046;73.266;2023-03-11T15:35:45;41.35;;;15.82;;
59167;SDS011;44948;55.046;73.266;2023-03-11T15:39:04;25.50;;;11.77;;
59167;SDS011;44948;55.046;73.266;2023-03-11T15:42:32;32.70;;;14.15;;
59167;SDS011;44948;55.046;73.266;2023-03-11T15:45:39;29.70;;;13.73;;
59167;SDS011;44948;55.046;73.266;2023-03-11T15:48:42;25.23;;;13.45;;
59167;SDS011;44948;55.046;73.266;2023-03-11T15:51:44;36.53;;;14.10;;
59167;SDS011;44948;55.046;73.266;2023-03-11T15:54:47;32.60;;;14.43;;
59167;SDS011;44948;55.046;73.266;2023-03-11T15:58:01;22.65;;;10.65;;
59167;SDS011;44948;55.046;73.266;2023-03-11T16:01:10;28.38;;;14.23;;
59167;SDS011;44948;55.046;73.266;2023-03-11T16:04:13;22.88;;;11.07;;
59167;SDS011;44948;55.046;73.266;2023-03-11T16:07:27;28.23;;;11.85;;
59167;SDS011;44948;55.046;73.266;2023-03-11T16:10:29;22.58;;;10.63;;
59167;SDS011;44948;55.046;73.266;2023-03-11T16:16:38;16.67;;;7.95;;
59167;SDS011;44948;55.046;73.266;2023-03-11T16:19:41;17.35;;;7.72;;
59167;SDS011;44948;55.046;73.266;2023-03-11T16:22:43;22.15;;;8.75;;
59167;SDS011;44948;55.046;73.266;2023-03-11T16:25:59;16.08;;;7.07;;
59167;SDS011;44948;55.046;73.266;2023-03-11T16:29:04;12.88;;;6.25;;
59167;SDS011;44948;55.046;73.266;2023-03-11T16:32:06;15.40;;;6.82;;
59167;SDS011;44948;55.046;73.266;2023-03-11T16:35:09;18.45;;;7.20;;
59167;SDS011;44948;55.046;73.266;2023-03-11T16:38:12;13.48;;;6.05;;
59167;SDS011;44948;55.046;73.266;2023-03-11T16:41:15;13.68;;;5.65;;
59167;SDS011;44948;55.046;73.266;2023-03-11T16:44:19;20.67;;;6.35;;
59167;SDS011;44948;55.046;73.266;2023-03-11T16:47:21;13.48;;;6.10;;
59167;SDS011;44948;55.046;73.266;2023-03-11T16:50:24;12.30;;;5.28;;
59167;SDS011;44948;55.046;73.266;2023-03-11T16:53:27;12.90;;;6.35;;
59167;SDS011;44948;55.046;73.266;2023-03-11T16:56:29;12.57;;;5.53;;
59167;SDS011;44948;55.046;73.266;2023-03-11T16:59:42;17.88;;;7.72;;
59167;SDS011;44948;55.046;73.266;2023-03-11T17:02:44;12.15;;;5.53;;
59167;SDS011;44948;55.046;73.266;2023-03-11T17:05:48;25.55;;;9.98;;
59167;SDS011;44948;55.046;73.266;2023-03-11T17:08:50;15.82;;;7.25;;
59167;SDS011;44948;55.046;73.266;2023-03-11T17:12:00;10.35;;;5.18;;
59167;SDS011;44948;55.046;73.266;2023-03-11T17:15:04;13.65;;;6.13;;
59167;SDS011;44948;55.046;73.266;2023-03-11T17:18:11;12.82;;;6.25;;
59167;SDS011;44948;55.046;73.266;2023-03-11T17:21:14;14.43;;;6.60;;
59167;SDS011;44948;55.046;73.266;2023-03-11T17:24:22;18.52;;;7.18;;
59167;SDS011;44948;55.046;73.266;2023-03-11T17:27:27;18.35;;;8.45;;
59167;SDS011;44948;55.046;73.266;2023-03-11T17:30:35;14.45;;;6.80;;
59167;SDS011;44948;55.046;73.266;2023-03-11T17:33:52;15.38;;;6.80;;
59167;SDS011;44948;55.046;73.266;2023-03-11T17:36:54;16.23;;;7.25;;
59167;SDS011;44948;55.046;73.266;2023-03-11T17:40:02;18.40;;;8.00;;
59167;SDS011;44948;55.046;73.266;2023-03-11T17:43:14;18.67;;;8.88;;
59167;SDS011;44948;55.046;73.266;2023-03-11T17:46:17;18.95;;;7.88;;
59167;SDS011;44948;55.046;73.266;2023-03-11T17:49:27;16.13;;;8.32;;
59167;SDS011;44948;55.046;73.266;2023-03-11T17:52:30;18.48;;;8.27;;
59167;SDS011;44948;55.046;73.266;2023-03-11T17:55:32;16.15;;;7.60;;
59167;SDS011;44948;55.046;73.266;2023-03-11T17:58:35;17.63;;;8.10;;
59167;SDS011;44948;55.046;73.266;2023-03-11T18:01:38;21.40;;;9.68;;
59167;SDS011;44948;55.046;73.266;2023-03-11T18:04:42;20.25;;;9.45;;
59167;SDS011;44948;55.046;73.266;2023-03-11T18:07:56;17.20;;;8.65;;
59167;SDS011;44948;55.046;73.266;2023-03-11T18:11:09;16.70;;;7.47;;
59167;SDS011;44948;55.046;73.266;2023-03-11T18:14:13;17.17;;;7.75;;
59167;SDS011;44948;55.046;73.266;2023-03-11T18:17:15;20.60;;;8.63;;
59167;SDS011;44948;55.046;73.266;2023-03-11T18:20:17;22.40;;;9.05;;
59167;SDS011;44948;55.046;73.266;2023-03-11T18:23:25;21.50;;;8.60;;
59167;SDS011;44948;55.046;73.266;2023-03-11T18:26:28;18.73;;;9.25;;
59167;SDS011;44948;55.046;73.266;2023-03-11T18:29:31;16.65;;;8.20;;
59167;SDS011;44948;55.046;73.266;2023-03-11T18:32:33;16.58;;;7.63;;
59167;SDS011;44948;55.046;73.266;2023-03-11T18:35:45;13.10;;;6.65;;
59167;SDS011;44948;55.046;73.266;2023-03-11T18:38:58;15.65;;;6.97;;
59167;SDS011;44948;55.046;73.266;2023-03-11T18:42:01;7.90;;;3.88;;
59167;SDS011;44948;55.046;73.266;2023-03-11T18:45:04;14.13;;;6.88;;
59167;SDS011;44948;55.046;73.266;2023-03-11T18:48:14;16.33;;;6.97;;
59167;SDS011;44948;55.046;73.266;2023-03-11T18:51:16;14.77;;;6.93;;
59167;SDS011;44948;55.046;73.266;2023-03-11T18:54:18;12.85;;;6.00;;
59167;SDS011;44948;55.046;73.266;2023-03-11T18:57:21;15.18;;;6.97;;
59167;SDS011;44948;55.046;73.266;2023-03-11T19:00:33;15.10;;;7.30;;
59167;SDS011;44948;55.046;73.266;2023-03-11T19:03:36;18.55;;;7.70;;
59167;SDS011;44948;55.046;73.266;2023-03-11T19:06:38;14.88;;;7.00;;
59167;SDS011;44948;55.046;73.266;2023-03-11T19:09:47;17.50;;;6.22;;
59167;SDS011;44948;55.046;73.266;2023-03-11T19:12:49;14.57;;;7.15;;
59167;SDS011;44948;55.046;73.266;2023-03-11T19:15:51;13.98;;;6.70;;
59167;SDS011;44948;55.046;73.266;2023-03-11T19:18:56;12.77;;;6.05;;
59167;SDS011;44948;55.046;73.266;2023-03-11T19:21:58;10.68;;;5.72;;
59167;SDS011;44948;55.046;73.266;2023-03-11T19:25:10;22.73;;;8.90;;
59167;SDS011;44948;55.046;73.266;2023-03-11T19:28:18;15.52;;;7.38;;
59167;SDS011;44948;55.046;73.266;2023-03-11T19:31:21;13.10;;;5.85;;
59167;SDS011;44948;55.046;73.266;2023-03-11T19:34:24;15.23;;;6.97;;
59167;SDS011;44948;55.046;73.266;2023-03-11T19:37:28;13.13;;;5.55;;
59167;SDS011;44948;55.046;73.266;2023-03-11T19:40:31;17.95;;;7.85;;
59167;SDS011;44948;55.046;73.266;2023-03-11T19:43:44;21.35;;;9.02;;
59167;SDS011;44948;55.046;73.266;2023-03-11T19:46:48;19.02;;;7.75;;
59167;SDS011;44948;55.046;73.266;2023-03-11T19:50:03;21.48;;;8.80;;
59167;SDS011;44948;55.046;73.266;2023-03-11T19:53:16;23.20;;;10.07;;
59167;SDS011;44948;55.046;73.266;2023-03-11T19:56:28;18.13;;;6.57;;